Time;durP1;ratioP1;P1;durP2;ratioP2;P2;SDS_P1;SDS_P2;PMS_P1;PMS_P2;Temp;Humidity;BMP_temperature;BMP_pressure;BME280_temperature;BME280_humidity;BME280_pressure;Samples;Min_cycle;Max_cycle;Signal;HPM_P1;HPM_P2
2024/03/26 00:01:35;;;;;;;;;3.00;3.00;;;;;;;;5001398;28;45353;-84
2024/03/26 00:04:00;;;;;;;;;6.00;5.00;;;;;;;;5000823;28;45324;-84
2024/03/26 00:06:25;;;;;;;;;4.00;3.00;;;;;;;;5004626;28;45233;-84
2024/03/26 00:08:50;;;;;;;;;4.00;4.00;;;;;;;;5003997;28;45309;-84
2024/03/26 00:11:15;;;;;;;;;3.33;3.33;;;;;;;;4977369;28;45752;-84
2024/03/26 00:13:41;;;;;;;;;3.33;2.33;;;;;;;;4964770;28;45323;-84
2024/03/26 00:16:06;;;;;;;;;4.33;4.33;;;;;;;;4971062;28;47049;-88
2024/03/26 00:18:31;;;;;;;;;3.33;3.33;;;;;;;;4968879;28;47511;-83
2024/03/26 00:20:56;;;;;;;;;3.00;3.00;;;;;;;;4984279;28;45271;-84
2024/03/26 00:23:25;;;;;;;;;4.33;4.00;;;;;;;;4966642;28;45735;-84
2024/03/26 00:25:50;;;;;;;;;4.67;4.67;;;;;;;;4964998;28;47537;-84
2024/03/26 00:28:15;;;;;;;;;4.67;4.67;;;;;;;;4974233;28;46175;-88
2024/03/26 00:30:40;;;;;;;;;4.00;4.00;;;;;;;;4969331;28;45216;-84
2024/03/26 00:33:05;;;;;;;;;4.00;4.00;;;;;;;;4967738;28;45242;-84
2024/03/26 00:35:34;;;;;;;;;4.67;4.67;;;;;;;;4992058;28;44759;-88
2024/03/26 00:37:59;;;;;;;;;3.33;3.33;;;;;;;;4994652;28;46245;-87
2024/03/26 00:40:24;;;;;;;;;5.00;5.00;;;;;;;;4988544;28;45324;-84
2024/03/26 00:42:49;;;;;;;;;5.67;5.00;;;;;;;;4990826;28;45389;-87
2024/03/26 00:45:15;;;;;;;;;4.67;4.67;;;;;;;;4966574;28;47082;-84
2024/03/26 00:47:40;;;;;;;;;4.00;4.00;;;;;;;;4982484;28;46323;-83
2024/03/26 00:50:05;;;;;;;;;7.00;6.00;;;;;;;;4971949;28;45363;-83
2024/03/26 00:52:31;;;;;;;;;5.67;5.33;;;;;;;;4968795;28;45270;-89
2024/03/26 00:54:56;;;;;;;;;6.33;6.00;;;;;;;;4980484;28;45380;-84
2024/03/26 00:57:21;;;;;;;;;4.33;4.33;;;;;;;;4979328;28;47201;-88
2024/03/26 00:59:46;;;;;;;;;7.00;7.00;;;;;;;;5001463;28;45219;-83
2024/03/26 01:02:11;;;;;;;;;8.33;6.67;;;;;;;;5000068;28;45559;-84
2024/03/26 01:04:36;;;;;;;;;6.33;6.33;;;;;;;;4984742;28;47255;-86
2024/03/26 01:07:02;;;;;;;;;7.00;7.00;;;;;;;;5003552;28;45549;-84
2024/03/26 01:09:27;;;;;;;;;6.67;6.67;;;;;;;;5000734;28;45360;-84
2024/03/26 01:11:52;;;;;;;;;7.00;7.00;;;;;;;;5022123;28;44800;-84
2024/03/26 01:14:17;;;;;;;;;6.00;6.00;;;;;;;;5027336;28;45434;-84
2024/03/26 01:16:42;;;;;;;;;6.00;6.00;;;;;;;;5029473;28;45334;-84
2024/03/26 01:19:08;;;;;;;;;7.00;7.00;;;;;;;;5035227;28;45212;-87
2024/03/26 01:21:33;;;;;;;;;3.67;3.00;;;;;;;;5006850;28;45432;-84
2024/03/26 01:23:58;;;;;;;;;5.00;5.00;;;;;;;;5024259;28;45322;-84
2024/03/26 01:26:23;;;;;;;;;6.00;6.00;;;;;;;;5030359;28;46220;-84
2024/03/26 01:28:49;;;;;;;;;6.33;5.33;;;;;;;;5010317;28;45262;-84
2024/03/26 01:31:14;;;;;;;;;8.00;6.67;;;;;;;;5027658;28;45498;-84
2024/03/26 01:33:40;;;;;;;;;8.33;8.00;;;;;;;;5023269;28;45222;-84
2024/03/26 01:36:05;;;;;;;;;5.00;5.00;;;;;;;;5033368;28;46509;-84
2024/03/26 01:38:30;;;;;;;;;6.33;5.00;;;;;;;;5030979;28;45278;-88
2024/03/26 01:40:55;;;;;;;;;5.00;5.00;;;;;;;;5024589;28;45293;-84
2024/03/26 01:43:21;;;;;;;;;5.00;5.00;;;;;;;;5026613;28;45432;-84
2024/03/26 01:45:46;;;;;;;;;5.00;4.00;;;;;;;;5035355;28;45255;-88
2024/03/26 01:48:11;;;;;;;;;6.67;4.33;;;;;;;;5023129;28;45435;-84
2024/03/26 01:50:36;;;;;;;;;2.33;1.00;;;;;;;;5028048;28;45368;-83
2024/03/26 01:53:04;;;;;;;;;5.33;5.33;;;;;;;;5025460;28;45328;-84
2024/03/26 01:55:29;;;;;;;;;8.00;5.67;;;;;;;;5031110;28;45269;-88
2024/03/26 01:57:55;;;;;;;;;6.00;5.00;;;;;;;;5011026;28;45307;-84
2024/03/26 02:00:20;;;;;;;;;7.67;6.67;;;;;;;;5007294;28;45288;-84
2024/03/26 02:02:45;;;;;;;;;5.67;5.67;;;;;;;;5003898;28;45317;-83
2024/03/26 02:05:11;;;;;;;;;5.33;4.33;;;;;;;;5004394;28;45369;-84
2024/03/26 02:07:37;;;;;;;;;2.67;2.67;;;;;;;;4998863;28;46037;-90
2024/03/26 02:10:03;;;;;;;;;5.00;5.00;;;;;;;;5002946;28;45402;-85
2024/03/26 02:12:28;;;;;;;;;7.33;6.00;;;;;;;;4973576;28;47850;-84
2024/03/26 02:14:53;;;;;;;;;5.00;5.00;;;;;;;;5006429;28;45230;-84
2024/03/26 02:17:18;;;;;;;;;5.67;5.67;;;;;;;;4987742;28;45337;-84
2024/03/26 02:19:43;;;;;;;;;5.00;5.00;;;;;;;;5009529;28;45594;-88
2024/03/26 02:22:09;;;;;;;;;3.33;3.33;;;;;;;;5003671;28;45439;-83
2024/03/26 02:24:34;;;;;;;;;8.67;5.00;;;;;;;;5009738;28;45308;-84
2024/03/26 02:26:59;;;;;;;;;5.00;5.00;;;;;;;;5009304;28;45215;-84
2024/03/26 02:29:24;;;;;;;;;5.00;5.00;;;;;;;;5005699;28;45361;-84
2024/03/26 02:31:50;;;;;;;;;8.00;7.33;;;;;;;;4985783;28;47268;-84
2024/03/26 02:34:15;;;;;;;;;6.33;6.33;;;;;;;;5001725;28;45445;-85
2024/03/26 02:36:40;;;;;;;;;6.00;6.00;;;;;;;;5006693;28;45207;-85
2024/03/26 02:39:05;;;;;;;;;6.00;6.00;;;;;;;;4989396;28;45357;-89
2024/03/26 02:41:30;;;;;;;;;3.00;3.00;;;;;;;;4986622;28;46034;-84
2024/03/26 02:43:56;;;;;;;;;6.67;6.00;;;;;;;;5006499;28;46309;-84
2024/03/26 02:46:21;;;;;;;;;6.00;6.00;;;;;;;;5004097;28;45349;-87
2024/03/26 02:48:46;;;;;;;;;6.00;6.00;;;;;;;;4985266;28;45334;-84
2024/03/26 02:51:11;;;;;;;;;6.33;6.00;;;;;;;;5002839;28;45314;-85
2024/03/26 02:54:08;;;;;;;;;6.00;6.00;;;;;;;;4984362;28;48580;-87
2024/03/26 02:56:33;;;;;;;;;6.00;6.00;;;;;;;;5002260;28;45266;-84
2024/03/26 02:58:58;;;;;;;;;7.00;7.00;;;;;;;;5021904;28;45407;-84
2024/03/26 03:01:23;;;;;;;;;5.00;5.00;;;;;;;;5022031;28;45519;-84
2024/03/26 03:03:48;;;;;;;;;6.33;6.33;;;;;;;;5021749;28;45473;-84
2024/03/26 03:06:14;;;;;;;;;7.00;6.00;;;;;;;;5024199;28;45269;-89
2024/03/26 03:08:39;;;;;;;;;7.00;7.00;;;;;;;;5023370;28;45762;-84
2024/03/26 03:11:04;;;;;;;;;6.33;6.00;;;;;;;;5007974;28;46168;-89
2024/03/26 03:13:30;;;;;;;;;4.67;4.67;;;;;;;;5028360;28;45343;-89
2024/03/26 03:15:55;;;;;;;;;6.00;6.00;;;;;;;;5030612;28;44655;-89
2024/03/26 03:18:20;;;;;;;;;9.00;9.00;;;;;;;;5022132;28;45238;-89
2024/03/26 03:20:46;;;;;;;;;9.00;9.00;;;;;;;;5029443;28;45209;-85
2024/03/26 03:23:11;;;;;;;;;12.33;11.00;;;;;;;;5036752;28;45329;-89
2024/03/26 03:25:36;;;;;;;;;15.33;15.33;;;;;;;;5026197;28;45227;-85
2024/03/26 03:28:01;;;;;;;;;10.67;10.33;;;;;;;;5005779;28;45333;-84
2024/03/26 03:30:27;;;;;;;;;15.67;12.33;;;;;;;;5041328;28;45091;-89
2024/03/26 03:32:52;;;;;;;;;12.33;11.67;;;;;;;;5017342;28;47023;-84
2024/03/26 03:35:18;;;;;;;;;10.67;10.00;;;;;;;;5031988;28;45139;-85
2024/03/26 03:37:43;;;;;;;;;7.00;7.00;;;;;;;;5027710;28;45226;-84
2024/03/26 03:40:08;;;;;;;;;11.33;11.33;;;;;;;;5024681;28;47007;-87
2024/03/26 03:42:33;;;;;;;;;6.67;6.67;;;;;;;;5042132;28;46562;-88
2024/03/26 03:44:59;;;;;;;;;6.00;6.00;;;;;;;;5034102;28;45136;-85
2024/03/26 03:47:24;;;;;;;;;6.67;6.00;;;;;;;;5012150;28;45294;-85
2024/03/26 03:49:49;;;;;;;;;8.00;8.00;;;;;;;;5026325;28;45186;-86
2024/03/26 03:52:14;;;;;;;;;8.67;8.00;;;;;;;;5037500;28;46217;-84
2024/03/26 03:54:39;;;;;;;;;6.00;6.00;;;;;;;;5044123;28;44750;-87
2024/03/26 03:57:05;;;;;;;;;6.00;6.00;;;;;;;;5027205;28;45407;-84
2024/03/26 03:59:30;;;;;;;;;7.33;6.67;;;;;;;;5004968;28;46402;-90
2024/03/26 04:01:55;;;;;;;;;7.33;7.33;;;;;;;;4986240;28;48533;-84
2024/03/26 04:04:20;;;;;;;;;4.67;3.67;;;;;;;;5005637;28;44854;-89
2024/03/26 04:06:46;;;;;;;;;4.67;4.67;;;;;;;;5018174;28;44536;-87
2024/03/26 04:09:11;;;;;;;;;6.00;6.00;;;;;;;;5010331;28;45244;-84
2024/03/26 04:11:39;;;;;;;;;5.00;5.00;;;;;;;;5006260;28;46316;-85
2024/03/26 04:14:04;;;;;;;;;9.00;7.00;;;;;;;;5021843;28;44655;-87
2024/03/26 04:16:29;;;;;;;;;7.00;7.00;;;;;;;;5016157;28;44627;-84
2024/03/26 04:18:54;;;;;;;;;4.67;4.67;;;;;;;;5010523;28;45415;-84
2024/03/26 04:21:20;;;;;;;;;9.00;7.33;;;;;;;;5006167;28;45217;-86
2024/03/26 04:23:46;;;;;;;;;7.33;6.00;;;;;;;;5003881;28;45455;-84
2024/03/26 04:26:12;;;;;;;;;5.67;5.67;;;;;;;;4997078;28;44846;-88
2024/03/26 04:28:37;;;;;;;;;7.00;7.00;;;;;;;;5000239;28;46084;-89
2024/03/26 04:31:02;;;;;;;;;6.00;6.00;;;;;;;;5003934;28;46477;-86
2024/03/26 04:33:28;;;;;;;;;9.33;7.00;;;;;;;;5013500;28;44912;-87
2024/03/26 04:35:53;;;;;;;;;6.00;6.00;;;;;;;;4984806;28;45735;-84
2024/03/26 04:38:18;;;;;;;;;7.33;5.33;;;;;;;;5011216;28;45151;-88
2024/03/26 04:40:44;;;;;;;;;7.00;6.00;;;;;;;;5007960;28;45314;-85
2024/03/26 04:43:09;;;;;;;;;7.00;6.67;;;;;;;;4988990;28;45720;-84
2024/03/26 04:45:35;;;;;;;;;4.33;4.33;;;;;;;;5004706;28;45199;-84
2024/03/26 04:48:00;;;;;;;;;5.67;4.67;;;;;;;;4995681;28;45944;-83
2024/03/26 04:50:26;;;;;;;;;6.67;6.67;;;;;;;;5017471;28;46296;-90
2024/03/26 04:52:51;;;;;;;;;6.00;6.00;;;;;;;;5005199;28;45300;-84
2024/03/26 04:55:16;;;;;;;;;4.00;4.00;;;;;;;;4989156;28;45361;-87
2024/03/26 04:57:41;;;;;;;;;7.00;5.00;;;;;;;;5020290;28;45386;-88
2024/03/26 05:00:07;;;;;;;;;6.00;6.00;;;;;;;;5017631;28;46992;-84
2024/03/26 05:02:32;;;;;;;;;5.33;5.33;;;;;;;;5013628;28;45327;-87
2024/03/26 05:04:58;;;;;;;;;5.67;5.00;;;;;;;;5022687;28;45285;-86
2024/03/26 05:07:23;;;;;;;;;8.00;7.33;;;;;;;;5027890;28;45315;-85
2024/03/26 05:09:48;;;;;;;;;6.67;6.67;;;;;;;;5011691;28;46911;-88
2024/03/26 05:12:13;;;;;;;;;7.33;7.33;;;;;;;;5012513;28;45510;-86
2024/03/26 05:14:38;;;;;;;;;8.00;8.00;;;;;;;;4993877;28;45256;-89
2024/03/26 05:17:04;;;;;;;;;8.67;8.33;;;;;;;;5011440;28;45412;-88
2024/03/26 05:19:29;;;;;;;;;6.67;6.67;;;;;;;;5002698;28;45699;-87
2024/03/26 05:21:54;;;;;;;;;7.67;7.00;;;;;;;;5012418;28;44734;-91
2024/03/26 05:24:19;;;;;;;;;7.00;7.00;;;;;;;;5008752;28;45301;-91
2024/03/26 05:26:45;;;;;;;;;7.67;6.33;;;;;;;;5005863;28;45253;-89
2024/03/26 05:29:10;;;;;;;;;6.00;6.00;;;;;;;;5016018;28;45531;-90
2024/03/26 05:31:35;;;;;;;;;6.67;6.67;;;;;;;;5005551;28;45300;-90
2024/03/26 05:34:00;;;;;;;;;7.00;7.00;;;;;;;;5009174;28;45468;-89
2024/03/26 05:36:27;;;;;;;;;6.33;6.33;;;;;;;;5000606;28;45341;-89
2024/03/26 05:38:52;;;;;;;;;6.00;6.00;;;;;;;;4999373;28;45273;-89
2024/03/26 05:41:17;;;;;;;;;5.33;5.33;;;;;;;;4999416;28;45313;-86
2024/03/26 05:43:42;;;;;;;;;5.33;5.00;;;;;;;;5000152;28;45407;-88
2024/03/26 05:46:07;;;;;;;;;7.00;6.00;;;;;;;;4999634;28;45227;-88
2024/03/26 05:48:32;;;;;;;;;6.00;6.00;;;;;;;;4998958;28;45282;-87
2024/03/26 05:50:58;;;;;;;;;8.00;7.67;;;;;;;;4988007;28;45312;-88
2024/03/26 05:53:23;;;;;;;;;6.00;6.00;;;;;;;;4979135;28;45508;-86
2024/03/26 05:55:48;;;;;;;;;6.00;6.00;;;;;;;;4978863;28;45289;-85
2024/03/26 05:58:13;;;;;;;;;9.33;8.00;;;;;;;;4975251;28;47523;-88
2024/03/26 06:00:39;;;;;;;;;11.00;8.00;;;;;;;;4982293;28;45343;-86
2024/03/26 06:03:04;;;;;;;;;10.33;10.00;;;;;;;;4984929;28;45465;-86
2024/03/26 06:05:29;;;;;;;;;9.33;9.33;;;;;;;;5001944;28;45310;-84
2024/03/26 06:07:54;;;;;;;;;9.33;9.33;;;;;;;;5002059;28;45345;-85
2024/03/26 06:10:20;;;;;;;;;10.33;10.00;;;;;;;;5002636;28;45215;-88
2024/03/26 06:12:46;;;;;;;;;10.00;8.67;;;;;;;;5022219;28;45202;-88
2024/03/26 06:15:11;;;;;;;;;10.33;8.00;;;;;;;;5021877;28;45287;-86
2024/03/26 06:17:37;;;;;;;;;7.00;6.67;;;;;;;;5004231;28;47355;-88
2024/03/26 06:20:04;;;;;;;;;8.33;8.33;;;;;;;;5021277;28;45488;-82
2024/03/26 06:22:29;;;;;;;;;7.00;6.00;;;;;;;;5021923;28;45310;-83
2024/03/26 06:24:54;;;;;;;;;7.00;7.00;;;;;;;;5021546;28;45206;-83
2024/03/26 06:27:20;;;;;;;;;6.00;5.33;;;;;;;;5018250;28;46298;-85
2024/03/26 06:29:45;;;;;;;;;7.33;7.00;;;;;;;;4985531;28;45285;-84
2024/03/26 06:32:10;;;;;;;;;7.00;7.00;;;;;;;;5001665;28;45570;-85
2024/03/26 06:34:35;;;;;;;;;9.33;8.00;;;;;;;;5000561;28;45365;-86
2024/03/26 06:37:01;;;;;;;;;9.00;8.33;;;;;;;;4984071;28;47276;-87
2024/03/26 06:39:26;;;;;;;;;12.00;11.00;;;;;;;;5002072;28;45259;-86
2024/03/26 06:41:51;;;;;;;;;8.67;7.00;;;;;;;;4984537;28;45266;-86
2024/03/26 06:44:17;;;;;;;;;7.67;7.67;;;;;;;;5001839;28;45257;-87
2024/03/26 06:46:42;;;;;;;;;6.33;6.33;;;;;;;;5002001;28;45298;-87
2024/03/26 06:49:07;;;;;;;;;8.67;8.67;;;;;;;;4984160;28;45877;-84
2024/03/26 06:51:32;;;;;;;;;7.00;7.00;;;;;;;;5002115;28;45290;-88
2024/03/26 06:53:57;;;;;;;;;7.33;6.00;;;;;;;;4988343;28;45495;-86
2024/03/26 06:56:24;;;;;;;;;10.00;10.00;;;;;;;;4963819;28;47284;-86
2024/03/26 06:58:50;;;;;;;;;6.33;6.33;;;;;;;;4963416;28;45303;-85
2024/03/26 07:01:15;;;;;;;;;9.00;9.00;;;;;;;;4981250;28;45404;-80
2024/03/26 07:03:40;;;;;;;;;11.33;9.00;;;;;;;;5000515;28;45507;-83
2024/03/26 07:06:07;;;;;;;;;8.00;8.00;;;;;;;;4997527;28;45524;-82
2024/03/26 07:08:33;;;;;;;;;7.00;7.00;;;;;;;;5001131;28;45320;-82
2024/03/26 07:10:58;;;;;;;;;7.00;7.00;;;;;;;;4981341;28;45358;-82
2024/03/26 07:13:27;;;;;;;;;7.00;7.00;;;;;;;;4997728;28;45484;-82
2024/03/26 07:15:52;;;;;;;;;9.00;8.67;;;;;;;;4998966;28;45354;-85
2024/03/26 07:18:17;;;;;;;;;8.00;7.00;;;;;;;;4999805;28;45382;-84
2024/03/26 07:20:42;;;;;;;;;7.33;7.33;;;;;;;;4978383;28;45248;-84
2024/03/26 07:23:07;;;;;;;;;11.00;8.00;;;;;;;;5000470;28;45294;-81
2024/03/26 07:25:33;;;;;;;;;8.00;8.00;;;;;;;;5000293;28;46123;-85
2024/03/26 07:27:58;;;;;;;;;8.00;7.67;;;;;;;;4996420;28;45354;-81
2024/03/26 07:30:23;;;;;;;;;7.33;7.33;;;;;;;;4974952;28;45333;-82
2024/03/26 07:32:48;;;;;;;;;10.67;9.00;;;;;;;;5000839;28;45147;-85
2024/03/26 07:35:14;;;;;;;;;8.00;7.67;;;;;;;;5005348;28;46186;-82
2024/03/26 07:37:39;;;;;;;;;6.33;6.33;;;;;;;;5001923;28;45339;-83
2024/03/26 07:40:09;;;;;;;;;9.00;8.00;;;;;;;;5013230;28;45502;-83
2024/03/26 07:42:34;;;;;;;;;6.67;6.67;;;;;;;;4988826;28;47086;-84
2024/03/26 07:45:01;;;;;;;;;10.00;8.00;;;;;;;;5005601;28;45355;-84
2024/03/26 07:47:26;;;;;;;;;7.67;7.67;;;;;;;;5002505;28;45400;-82
2024/03/26 07:49:51;;;;;;;;;6.00;6.00;;;;;;;;5003610;28;45202;-85
2024/03/26 07:52:16;;;;;;;;;8.00;8.00;;;;;;;;5001628;28;45368;-82
2024/03/26 07:54:41;;;;;;;;;6.00;6.00;;;;;;;;5001500;28;46558;-84
2024/03/26 07:57:07;;;;;;;;;8.00;7.33;;;;;;;;5005818;28;45226;-85
2024/03/26 07:59:32;;;;;;;;;6.67;6.67;;;;;;;;5021044;28;45272;-84
2024/03/26 08:01:57;;;;;;;;;9.00;9.00;;;;;;;;4999312;28;47322;-83
2024/03/26 08:04:22;;;;;;;;;7.33;7.33;;;;;;;;4999382;28;45345;-82
2024/03/26 08:06:47;;;;;;;;;7.67;7.67;;;;;;;;5000523;28;45352;-84
2024/03/26 08:09:13;;;;;;;;;7.00;7.00;;;;;;;;5000318;28;45574;-81
2024/03/26 08:11:38;;;;;;;;;6.33;6.33;;;;;;;;4999997;28;45474;-81
2024/03/26 08:14:04;;;;;;;;;6.00;6.00;;;;;;;;5000192;28;45383;-80
2024/03/26 08:16:29;;;;;;;;;5.33;4.67;;;;;;;;4999894;28;45274;-83
2024/03/26 08:18:55;;;;;;;;;7.00;7.00;;;;;;;;4999974;28;45602;-83
2024/03/26 08:21:20;;;;;;;;;6.67;6.67;;;;;;;;5000134;28;45451;-82
2024/03/26 08:23:45;;;;;;;;;7.00;6.67;;;;;;;;4999174;28;45291;-82
2024/03/26 08:26:10;;;;;;;;;7.00;6.00;;;;;;;;4999932;28;45281;-82
2024/03/26 08:28:35;;;;;;;;;6.33;5.67;;;;;;;;4983195;28;45319;-81
2024/03/26 08:31:01;;;;;;;;;6.00;5.00;;;;;;;;5000190;28;45258;-81
2024/03/26 08:33:26;;;;;;;;;5.33;5.33;;;;;;;;5000676;28;46396;-83
2024/03/26 08:35:51;;;;;;;;;6.00;4.00;;;;;;;;5000226;28;45333;-83
2024/03/26 08:38:16;;;;;;;;;5.33;5.33;;;;;;;;4999978;28;45194;-80
2024/03/26 08:40:41;;;;;;;;;4.67;4.00;;;;;;;;5000063;28;45190;-83
2024/03/26 08:43:08;;;;;;;;;6.33;5.33;;;;;;;;4981462;28;48253;-81
2024/03/26 08:45:39;;;;;;;;;4.33;4.33;;;;;;;;4999798;28;45645;-82
2024/03/26 08:48:04;;;;;;;;;3.33;3.33;;;;;;;;4981214;28;45300;-83
2024/03/26 08:50:29;;;;;;;;;6.67;6.00;;;;;;;;4981620;28;46188;-81
2024/03/26 08:52:54;;;;;;;;;8.00;5.33;;;;;;;;5000607;28;46297;-82
2024/03/26 08:55:19;;;;;;;;;6.00;4.67;;;;;;;;4999257;28;45153;-84
2024/03/26 08:57:45;;;;;;;;;6.00;4.33;;;;;;;;5001513;28;45407;-81
2024/03/26 09:00:10;;;;;;;;;4.00;4.00;;;;;;;;5011365;28;45218;-83
2024/03/26 09:02:36;;;;;;;;;5.33;5.33;;;;;;;;5010560;28;45912;-83
2024/03/26 09:05:01;;;;;;;;;6.00;6.00;;;;;;;;5006232;28;45144;-83
2024/03/26 09:07:27;;;;;;;;;7.33;7.33;;;;;;;;5001462;28;45615;-83
2024/03/26 09:09:53;;;;;;;;;7.67;6.67;;;;;;;;5002053;28;45628;-82
2024/03/26 09:12:18;;;;;;;;;8.00;6.00;;;;;;;;4998642;28;45534;-83
2024/03/26 09:14:43;;;;;;;;;9.00;5.67;;;;;;;;4998946;28;45376;-81
2024/03/26 09:17:08;;;;;;;;;7.33;7.33;;;;;;;;4981426;28;45637;-83
2024/03/26 09:19:33;;;;;;;;;10.33;8.00;;;;;;;;4998391;28;45463;-84
2024/03/26 09:21:58;;;;;;;;;8.00;7.00;;;;;;;;4983281;28;47151;-83
2024/03/26 09:24:24;;;;;;;;;11.00;7.67;;;;;;;;4982375;28;45388;-82
2024/03/26 09:26:49;;;;;;;;;8.00;8.00;;;;;;;;4999251;28;45367;-80
2024/03/26 09:29:14;;;;;;;;;6.00;6.00;;;;;;;;4998641;28;45281;-81
2024/03/26 09:31:39;;;;;;;;;7.00;7.00;;;;;;;;4981022;28;48271;-81
2024/03/26 09:34:05;;;;;;;;;7.67;7.67;;;;;;;;4995011;28;45424;-82
2024/03/26 09:36:30;;;;;;;;;6.67;6.67;;;;;;;;4983928;28;45383;-81
2024/03/26 09:38:55;;;;;;;;;6.67;6.00;;;;;;;;5020201;28;45455;-80
2024/03/26 09:41:22;;;;;;;;;8.00;7.00;;;;;;;;5021946;28;45428;-80
2024/03/26 09:43:48;;;;;;;;;6.67;6.00;;;;;;;;4987569;28;45286;-81
2024/03/26 09:46:14;;;;;;;;;6.33;6.00;;;;;;;;5002241;28;45220;-81
2024/03/26 09:48:41;;;;;;;;;6.33;6.00;;;;;;;;5002278;28;45276;-82
2024/03/26 09:51:07;;;;;;;;;5.00;2.00;;;;;;;;5000866;28;46304;-81
2024/03/26 09:53:33;;;;;;;;;29.67;26.33;;;;;;;;4984724;28;45445;-80
2024/03/26 09:55:58;;;;;;;;;8.33;8.00;;;;;;;;5001559;28;45344;-81
2024/03/26 09:58:23;;;;;;;;;7.33;7.00;;;;;;;;5018076;28;45455;-82
2024/03/26 10:00:51;;;;;;;;;5.33;5.00;;;;;;;;5022148;28;45305;-80
2024/03/26 10:03:20;;;;;;;;;4.67;3.00;;;;;;;;5021559;28;45356;-80
2024/03/26 10:05:46;;;;;;;;;5.67;5.67;;;;;;;;5021787;28;45346;-80
2024/03/26 10:08:11;;;;;;;;;5.67;5.67;;;;;;;;5021805;28;45274;-80
2024/03/26 10:10:39;;;;;;;;;6.00;4.33;;;;;;;;5021889;28;46428;-83
2024/03/26 10:13:09;;;;;;;;;5.00;4.67;;;;;;;;5004281;28;45300;-83
2024/03/26 10:15:34;;;;;;;;;6.00;6.00;;;;;;;;5021924;28;45265;-83
2024/03/26 10:17:59;;;;;;;;;5.67;4.33;;;;;;;;5004016;28;46019;-82
2024/03/26 10:20:26;;;;;;;;;4.33;4.33;;;;;;;;5003575;28;48410;-81
2024/03/26 10:23:01;;;;;;;;;4.33;4.33;;;;;;;;5003851;28;45246;-80
2024/03/26 10:25:27;;;;;;;;;4.00;3.33;;;;;;;;5021931;28;45420;-80
2024/03/26 10:27:52;;;;;;;;;3.00;3.00;;;;;;;;5021568;28;45382;-80
2024/03/26 10:30:18;;;;;;;;;5.33;3.67;;;;;;;;5021433;28;45401;-80
2024/03/26 10:32:43;;;;;;;;;6.33;5.00;;;;;;;;5006674;28;45482;-80
2024/03/26 10:35:10;;;;;;;;;5.00;3.00;;;;;;;;5001557;28;45372;-81
2024/03/26 10:37:35;;;;;;;;;4.67;4.67;;;;;;;;5000811;28;45455;-79
2024/03/26 10:40:14;;;;;;;;;5.33;4.67;;;;;;;;5001119;28;45337;-81
2024/03/26 10:42:42;;;;;;;;;5.00;4.00;;;;;;;;4983839;28;45206;-79
2024/03/26 10:45:08;;;;;;;;;5.00;5.00;;;;;;;;5001786;28;45398;-79
2024/03/26 10:47:33;;;;;;;;;4.33;3.67;;;;;;;;5001277;28;45292;-80
2024/03/26 10:49:59;;;;;;;;;4.00;4.00;;;;;;;;5001266;28;46154;-81
2024/03/26 10:52:25;;;;;;;;;5.00;3.33;;;;;;;;5001513;28;45368;-81
2024/03/26 10:54:51;;;;;;;;;4.00;3.00;;;;;;;;5001685;28;45376;-81
2024/03/26 10:57:17;;;;;;;;;3.00;3.00;;;;;;;;5008234;28;45372;-80
2024/03/26 10:59:42;;;;;;;;;3.00;3.00;;;;;;;;5021053;28;46202;-81
2024/03/26 11:02:08;;;;;;;;;5.00;3.33;;;;;;;;5021306;28;45255;-81
2024/03/26 11:04:33;;;;;;;;;4.00;3.00;;;;;;;;5021057;28;45226;-81
2024/03/26 11:06:59;;;;;;;;;4.67;4.67;;;;;;;;5021038;28;45475;-79
2024/03/26 11:09:24;;;;;;;;;4.00;3.33;;;;;;;;5020986;28;45409;-79
2024/03/26 11:11:50;;;;;;;;;4.00;3.67;;;;;;;;5020856;28;45737;-81
2024/03/26 11:14:15;;;;;;;;;3.00;3.00;;;;;;;;5003383;28;45189;-79
2024/03/26 11:16:41;;;;;;;;;5.00;5.00;;;;;;;;5003139;28;47222;-81
2024/03/26 11:19:16;;;;;;;;;4.00;4.00;;;;;;;;5020511;28;46366;-79
2024/03/26 11:21:41;;;;;;;;;4.00;4.00;;;;;;;;5020784;28;45331;-79
2024/03/26 11:24:06;;;;;;;;;3.00;3.00;;;;;;;;5021056;28;45226;-80
2024/03/26 11:26:31;;;;;;;;;1.00;1.00;;;;;;;;4991893;28;45953;-79
2024/03/26 11:28:59;;;;;;;;;3.00;3.00;;;;;;;;5001344;28;45998;-80
2024/03/26 11:31:26;;;;;;;;;4.00;4.00;;;;;;;;5000905;28;45356;-79
2024/03/26 11:33:54;;;;;;;;;3.67;3.33;;;;;;;;4982774;28;45444;-78
2024/03/26 11:36:20;;;;;;;;;2.00;2.00;;;;;;;;5000744;28;45272;-80
2024/03/26 11:38:47;;;;;;;;;3.33;3.33;;;;;;;;4982827;28;47072;-80
2024/03/26 11:41:12;;;;;;;;;2.50;1.50;;;;;;;;5000864;28;45425;-79
2024/03/26 11:43:38;;;;;;;;;3.00;3.00;;;;;;;;4983222;28;45307;-79
2024/03/26 11:46:04;;;;;;;;;3.00;3.00;;;;;;;;5000783;28;45327;-80
2024/03/26 11:48:29;;;;;;;;;3.67;1.00;;;;;;;;5000285;28;46105;-80
2024/03/26 11:50:55;;;;;;;;;2.00;2.00;;;;;;;;5000636;28;45435;-79
2024/03/26 11:53:20;;;;;;;;;2.67;2.00;;;;;;;;4999991;28;45333;-80
2024/03/26 11:55:45;;;;;;;;;1.67;1.33;;;;;;;;5000042;28;45340;-79
2024/03/26 11:58:10;;;;;;;;;1.00;1.00;;;;;;;;4996184;28;46973;-80
2024/03/26 12:00:36;;;;;;;;;3.00;1.75;;;;;;;;5002255;28;45389;-80
2024/03/26 12:03:01;;;;;;;;;2.00;2.00;;;;;;;;5020486;28;45546;-80
2024/03/26 12:05:26;;;;;;;;;1.00;1.00;;;;;;;;5002168;28;45993;-80
2024/03/26 12:07:52;;;;;;;;;3.00;2.00;;;;;;;;5020349;28;46483;-80
2024/03/26 12:10:17;;;;;;;;;1.00;1.00;;;;;;;;5001720;28;45303;-80
2024/03/26 12:12:44;;;;;;;;;2.00;2.00;;;;;;;;5020334;28;45213;-80
2024/03/26 12:15:11;;;;;;;;;3.50;3.00;;;;;;;;5020028;28;45298;-81
2024/03/26 12:17:36;;;;;;;;;2.00;2.00;;;;;;;;5002012;28;47131;-80
2024/03/26 12:20:03;;;;;;;;;3.00;1.33;;;;;;;;5001468;28;45485;-81
2024/03/26 12:22:29;;;;;;;;;0.00;0.00;;;;;;;;5013495;28;45354;-81
2024/03/26 12:24:54;;;;;;;;;1.00;1.00;;;;;;;;4996728;28;45580;-81
2024/03/26 12:27:19;;;;;;;;;1.25;1.25;;;;;;;;4997195;28;46240;-81
2024/03/26 12:29:45;;;;;;;;;1.00;1.00;;;;;;;;4999447;28;45376;-80
2024/03/26 12:32:11;;;;;;;;;1.00;0.33;;;;;;;;4999715;28;45286;-79
2024/03/26 12:34:36;;;;;;;;;2.33;2.33;;;;;;;;4981373;28;47364;-81
2024/03/26 12:37:02;;;;;;;;;2.00;2.00;;;;;;;;4999448;28;46446;-81
2024/03/26 12:39:27;;;;;;;;;2.00;2.00;;;;;;;;4999474;28;45219;-81
2024/03/26 12:41:52;;;;;;;;;2.00;2.00;;;;;;;;4994645;28;45278;-81
2024/03/26 12:44:19;;;;;;;;;2.33;2.33;;;;;;;;5018617;28;45226;-81
2024/03/26 12:46:44;;;;;;;;;2.00;2.00;;;;;;;;5019251;28;45264;-81
2024/03/26 12:49:09;;;;;;;;;1.00;1.00;;;;;;;;4994841;28;45249;-82
2024/03/26 12:51:35;;;;;;;;;3.33;3.00;;;;;;;;5019638;28;45300;-81
2024/03/26 12:54:07;;;;;;;;;3.00;1.67;;;;;;;;5002091;28;46237;-81
2024/03/26 12:56:33;;;;;;;;;3.00;3.00;;;;;;;;5000288;28;46626;-81
2024/03/26 12:58:58;;;;;;;;;3.67;3.67;;;;;;;;5018280;28;45287;-81
2024/03/26 13:01:24;;;;;;;;;2.00;2.00;;;;;;;;5019252;28;45264;-80
2024/03/26 13:03:49;;;;;;;;;3.00;2.33;;;;;;;;5001076;28;46474;-80
2024/03/26 13:06:14;;;;;;;;;3.00;3.00;;;;;;;;5001102;28;47242;-81
2024/03/26 13:08:40;;;;;;;;;2.00;2.00;;;;;;;;5019342;28;45357;-81
2024/03/26 13:11:10;;;;;;;;;2.67;2.00;;;;;;;;4995672;28;45293;-81
2024/03/26 13:13:35;;;;;;;;;2.00;2.00;;;;;;;;5002701;28;45396;-80
2024/03/26 13:16:00;;;;;;;;;3.00;1.00;;;;;;;;5002746;28;45422;-81
2024/03/26 13:18:26;;;;;;;;;2.00;2.00;;;;;;;;5002342;28;45364;-81
2024/03/26 13:20:51;;;;;;;;;2.67;2.67;;;;;;;;5020137;28;45570;-82
2024/03/26 13:23:16;;;;;;;;;1.33;1.33;;;;;;;;5021489;28;45534;-81
2024/03/26 13:25:41;;;;;;;;;4.00;4.00;;;;;;;;5022606;28;45427;-80
2024/03/26 13:28:06;;;;;;;;;2.00;2.00;;;;;;;;5003853;28;45330;-81
2024/03/26 13:30:31;;;;;;;;;2.00;2.00;;;;;;;;4989793;28;45493;-82
2024/03/26 13:32:57;;;;;;;;;2.00;2.00;;;;;;;;4983544;28;46027;-79
2024/03/26 13:35:24;;;;;;;;;2.00;1.00;;;;;;;;5001848;28;45344;-79
2024/03/26 13:37:49;;;;;;;;;2.33;1.33;;;;;;;;5001715;28;45319;-79
2024/03/26 13:40:14;;;;;;;;;2.00;2.00;;;;;;;;5001410;28;45513;-81
2024/03/26 13:42:39;;;;;;;;;2.00;2.00;;;;;;;;4990661;28;45226;-81
2024/03/26 13:45:05;;;;;;;;;2.00;2.00;;;;;;;;4970876;28;48272;-82
2024/03/26 13:47:30;;;;;;;;;3.00;1.67;;;;;;;;5001979;28;45277;-82
2024/03/26 13:49:55;;;;;;;;;1.67;1.67;;;;;;;;4979427;28;45838;-82
2024/03/26 13:52:20;;;;;;;;;1.00;1.00;;;;;;;;4994821;28;45840;-83
2024/03/26 13:54:45;;;;;;;;;2.67;1.67;;;;;;;;5001467;28;45129;-82
2024/03/26 13:57:11;;;;;;;;;2.00;2.00;;;;;;;;5003210;28;45368;-82
2024/03/26 13:59:38;;;;;;;;;3.00;3.00;;;;;;;;5001611;28;45337;-82
2024/03/26 14:02:04;;;;;;;;;3.00;3.00;;;;;;;;5010584;28;45453;-82
2024/03/26 14:04:30;;;;;;;;;3.00;2.00;;;;;;;;5011826;28;46287;-82
2024/03/26 14:06:55;;;;;;;;;2.33;1.67;;;;;;;;4994165;28;45369;-83
2024/03/26 14:09:21;;;;;;;;;3.00;3.00;;;;;;;;4997185;28;45336;-82
2024/03/26 14:11:46;;;;;;;;;3.00;2.00;;;;;;;;5000700;28;45326;-83
2024/03/26 14:14:11;;;;;;;;;2.00;2.00;;;;;;;;5001702;28;46124;-83
2024/03/26 14:16:36;;;;;;;;;1.33;1.33;;;;;;;;5001332;28;45377;-84
2024/03/26 14:19:01;;;;;;;;;2.67;2.67;;;;;;;;4982321;28;45326;-84
2024/03/26 14:21:26;;;;;;;;;3.33;3.33;;;;;;;;4997967;28;45443;-85
2024/03/26 14:23:52;;;;;;;;;6.33;5.33;;;;;;;;4981685;28;45402;-83
2024/03/26 14:26:18;;;;;;;;;4.00;4.00;;;;;;;;4983660;28;45316;-85
2024/03/26 14:28:43;;;;;;;;;5.00;3.67;;;;;;;;5001092;28;45285;-85
2024/03/26 14:31:08;;;;;;;;;4.33;4.33;;;;;;;;4983460;28;46357;-85